Decoded Metar for UHBB (BLAGOVESCHENSK in RUSSIA) (IATA:BQS) | Meteo·Mobile Aviation Weather
aviador You're here:

UHBB Decoded Metar

BLAGOVESCHENSK in RUSSIA
Report Time2019-07-22 01:00:00
UTC Time2019-07-22 01:31:45
Flight Rules mvfr MVFR
Wind170° at 6 kt
W.Decomp.*RWY 18: 6.0 kt HW 0.1 kt RCW
Visibility9999 m
Phenomena:N/A
Clouds:Broken 010 Hf
Broken CB 026 Hf
Ceiling1,000 ft
Temp22°C (ISA +8)
Dew Point22°C (100% RH)
QNH0997 hPa
Density Alt2,497 ft
Elevation640 ft
Report Wrong Elevation
Raw Report
METAR UHBB 220100Z 17003MPS 9999 BKN010 BKN026CB 22/22 Q0997
R18/090060 NOSIG RMK QFE733/0977=

Extra information for UHBB:More info

Metar Taf Metar & Taf Last 4 Metars F.Rules Stats Wind Profile Meteogram Temp Stats Airport Information Weather charts Add Link Nearby VenuesMetar ALERT Operation Metar Decoded Social comments